sensor_id;sensor_type;location;lat;lon;timestamp;P1;durP1;ratioP1;P2;durP2;ratioP2
52067;SDS011;60237;52.338;21.228;2024-03-22T00:01:14;96.82;;;22.63;;
52067;SDS011;60237;52.338;21.228;2024-03-22T00:03:40;107.35;;;21.25;;
52067;SDS011;60237;52.338;21.228;2024-03-22T00:06:05;70.88;;;20.67;;
52067;SDS011;60237;52.338;21.228;2024-03-22T00:08:31;68.90;;;20.48;;
52067;SDS011;60237;52.338;21.228;2024-03-22T00:10:56;70.72;;;21.70;;
52067;SDS011;60237;52.338;21.228;2024-03-22T00:13:22;99.68;;;24.13;;
52067;SDS011;60237;52.338;21.228;2024-03-22T00:15:48;57.35;;;20.95;;
52067;SDS011;60237;52.338;21.228;2024-03-22T00:18:13;67.03;;;23.08;;
52067;SDS011;60237;52.338;21.228;2024-03-22T00:20:39;64.18;;;23.33;;
52067;SDS011;60237;52.338;21.228;2024-03-22T00:23:04;78.90;;;24.65;;
52067;SDS011;60237;52.338;21.228;2024-03-22T00:25:30;66.55;;;24.40;;
52067;SDS011;60237;52.338;21.228;2024-03-22T00:27:56;57.42;;;23.98;;
52067;SDS011;60237;52.338;21.228;2024-03-22T00:30:21;75.18;;;24.30;;
52067;SDS011;60237;52.338;21.228;2024-03-22T00:32:47;81.45;;;27.00;;
52067;SDS011;60237;52.338;21.228;2024-03-22T00:35:13;73.00;;;25.90;;
52067;SDS011;60237;52.338;21.228;2024-03-22T00:37:38;80.45;;;26.67;;
52067;SDS011;60237;52.338;21.228;2024-03-22T00:40:04;56.30;;;24.90;;
52067;SDS011;60237;52.338;21.228;2024-03-22T00:42:30;59.72;;;25.38;;
52067;SDS011;60237;52.338;21.228;2024-03-22T00:44:56;70.15;;;26.70;;
52067;SDS011;60237;52.338;21.228;2024-03-22T00:47:23;72.00;;;26.55;;
52067;SDS011;60237;52.338;21.228;2024-03-22T00:49:49;53.75;;;23.80;;
52067;SDS011;60237;52.338;21.228;2024-03-22T00:52:14;84.25;;;25.48;;
52067;SDS011;60237;52.338;21.228;2024-03-22T00:54:40;61.90;;;24.00;;
52067;SDS011;60237;52.338;21.228;2024-03-22T00:57:06;64.68;;;24.00;;
52067;SDS011;60237;52.338;21.228;2024-03-22T00:59:32;74.82;;;22.75;;
52067;SDS011;60237;52.338;21.228;2024-03-22T01:01:57;51.60;;;22.42;;
52067;SDS011;60237;52.338;21.228;2024-03-22T01:04:23;61.60;;;21.90;;
52067;SDS011;60237;52.338;21.228;2024-03-22T01:06:49;81.43;;;25.25;;
52067;SDS011;60237;52.338;21.228;2024-03-22T01:09:14;97.30;;;25.95;;
52067;SDS011;60237;52.338;21.228;2024-03-22T01:11:40;60.33;;;22.95;;
52067;SDS011;60237;52.338;21.228;2024-03-22T01:14:06;55.53;;;24.23;;
52067;SDS011;60237;52.338;21.228;2024-03-22T01:16:32;63.95;;;24.25;;
52067;SDS011;60237;52.338;21.228;2024-03-22T01:18:57;47.88;;;22.48;;
52067;SDS011;60237;52.338;21.228;2024-03-22T01:21:23;65.90;;;24.30;;
52067;SDS011;60237;52.338;21.228;2024-03-22T01:23:53;66.45;;;23.83;;
52067;SDS011;60237;52.338;21.228;2024-03-22T01:26:19;66.63;;;24.88;;
52067;SDS011;60237;52.338;21.228;2024-03-22T01:28:44;71.15;;;25.35;;
52067;SDS011;60237;52.338;21.228;2024-03-22T01:31:10;90.47;;;25.75;;
52067;SDS011;60237;52.338;21.228;2024-03-22T01:33:35;70.63;;;24.63;;
52067;SDS011;60237;52.338;21.228;2024-03-22T01:36:01;65.53;;;24.23;;
52067;SDS011;60237;52.338;21.228;2024-03-22T01:38:27;68.07;;;25.63;;
52067;SDS011;60237;52.338;21.228;2024-03-22T01:40:53;56.63;;;24.85;;
52067;SDS011;60237;52.338;21.228;2024-03-22T01:43:18;73.20;;;25.95;;
52067;SDS011;60237;52.338;21.228;2024-03-22T01:45:44;75.38;;;25.92;;
52067;SDS011;60237;52.338;21.228;2024-03-22T01:48:10;82.80;;;25.25;;
52067;SDS011;60237;52.338;21.228;2024-03-22T01:50:36;60.33;;;24.38;;
52067;SDS011;60237;52.338;21.228;2024-03-22T01:53:02;70.70;;;24.92;;
52067;SDS011;60237;52.338;21.228;2024-03-22T01:55:28;74.47;;;26.02;;
52067;SDS011;60237;52.338;21.228;2024-03-22T01:57:54;58.97;;;25.88;;
52067;SDS011;60237;52.338;21.228;2024-03-22T02:00:21;96.47;;;28.13;;
52067;SDS011;60237;52.338;21.228;2024-03-22T02:02:47;92.30;;;26.90;;
52067;SDS011;60237;52.338;21.228;2024-03-22T02:05:16;122.78;;;30.38;;
52067;SDS011;60237;52.338;21.228;2024-03-22T02:07:47;93.05;;;27.95;;
52067;SDS011;60237;52.338;21.228;2024-03-22T02:10:13;76.80;;;27.92;;
52067;SDS011;60237;52.338;21.228;2024-03-22T02:12:40;64.57;;;27.60;;
52067;SDS011;60237;52.338;21.228;2024-03-22T02:15:06;93.18;;;30.20;;
52067;SDS011;60237;52.338;21.228;2024-03-22T02:17:35;87.70;;;30.23;;
52067;SDS011;60237;52.338;21.228;2024-03-22T02:20:01;84.47;;;31.05;;
52067;SDS011;60237;52.338;21.228;2024-03-22T02:22:30;71.43;;;29.52;;
52067;SDS011;60237;52.338;21.228;2024-03-22T02:24:55;87.88;;;31.30;;
52067;SDS011;60237;52.338;21.228;2024-03-22T02:27:21;75.70;;;30.08;;
52067;SDS011;60237;52.338;21.228;2024-03-22T02:29:46;85.68;;;29.88;;
52067;SDS011;60237;52.338;21.228;2024-03-22T02:32:12;86.18;;;31.48;;
52067;SDS011;60237;52.338;21.228;2024-03-22T02:34:38;100.15;;;33.67;;
52067;SDS011;60237;52.338;21.228;2024-03-22T02:37:04;100.03;;;33.65;;
52067;SDS011;60237;52.338;21.228;2024-03-22T02:39:30;87.25;;;30.55;;
52067;SDS011;60237;52.338;21.228;2024-03-22T02:41:55;98.70;;;32.85;;
52067;SDS011;60237;52.338;21.228;2024-03-22T02:44:21;73.70;;;30.92;;
52067;SDS011;60237;52.338;21.228;2024-03-22T02:46:47;81.95;;;29.65;;
52067;SDS011;60237;52.338;21.228;2024-03-22T02:49:13;107.63;;;30.95;;
52067;SDS011;60237;52.338;21.228;2024-03-22T02:51:38;91.00;;;30.02;;
52067;SDS011;60237;52.338;21.228;2024-03-22T02:54:04;108.93;;;30.40;;
52067;SDS011;60237;52.338;21.228;2024-03-22T02:56:30;95.82;;;27.80;;
52067;SDS011;60237;52.338;21.228;2024-03-22T02:58:59;107.57;;;30.17;;
52067;SDS011;60237;52.338;21.228;2024-03-22T03:01:24;84.35;;;27.95;;
52067;SDS011;60237;52.338;21.228;2024-03-22T03:03:50;99.70;;;29.10;;
52067;SDS011;60237;52.338;21.228;2024-03-22T03:06:15;86.78;;;30.65;;
52067;SDS011;60237;52.338;21.228;2024-03-22T03:08:43;79.57;;;27.23;;
52067;SDS011;60237;52.338;21.228;2024-03-22T03:11:09;93.78;;;28.10;;
52067;SDS011;60237;52.338;21.228;2024-03-22T03:13:34;79.22;;;28.58;;
52067;SDS011;60237;52.338;21.228;2024-03-22T03:16:00;93.57;;;27.20;;
52067;SDS011;60237;52.338;21.228;2024-03-22T03:18:25;101.63;;;31.05;;
52067;SDS011;60237;52.338;21.228;2024-03-22T03:20:51;70.97;;;26.20;;
52067;SDS011;60237;52.338;21.228;2024-03-22T03:23:16;84.00;;;27.50;;
52067;SDS011;60237;52.338;21.228;2024-03-22T03:25:42;80.70;;;26.58;;
52067;SDS011;60237;52.338;21.228;2024-03-22T03:28:08;67.30;;;26.73;;
52067;SDS011;60237;52.338;21.228;2024-03-22T03:30:36;71.10;;;28.70;;
52067;SDS011;60237;52.338;21.228;2024-03-22T03:33:02;88.43;;;27.77;;
52067;SDS011;60237;52.338;21.228;2024-03-22T03:35:27;84.93;;;27.88;;
52067;SDS011;60237;52.338;21.228;2024-03-22T03:37:55;76.55;;;27.08;;
52067;SDS011;60237;52.338;21.228;2024-03-22T03:40:20;76.40;;;27.83;;
52067;SDS011;60237;52.338;21.228;2024-03-22T03:42:47;101.47;;;29.85;;
52067;SDS011;60237;52.338;21.228;2024-03-22T03:45:12;93.20;;;27.50;;
52067;SDS011;60237;52.338;21.228;2024-03-22T03:47:38;67.70;;;25.65;;
52067;SDS011;60237;52.338;21.228;2024-03-22T03:50:04;102.75;;;27.75;;
52067;SDS011;60237;52.338;21.228;2024-03-22T03:52:30;78.38;;;27.92;;
52067;SDS011;60237;52.338;21.228;2024-03-22T03:54:55;79.82;;;28.70;;
52067;SDS011;60237;52.338;21.228;2024-03-22T03:57:21;76.80;;;25.05;;
52067;SDS011;60237;52.338;21.228;2024-03-22T03:59:46;79.78;;;26.85;;
52067;SDS011;60237;52.338;21.228;2024-03-22T04:02:12;87.13;;;30.23;;
52067;SDS011;60237;52.338;21.228;2024-03-22T04:04:38;85.68;;;27.13;;
52067;SDS011;60237;52.338;21.228;2024-03-22T04:07:04;88.43;;;27.95;;
52067;SDS011;60237;52.338;21.228;2024-03-22T04:09:29;83.70;;;29.27;;
52067;SDS011;60237;52.338;21.228;2024-03-22T04:11:55;124.18;;;31.13;;
52067;SDS011;60237;52.338;21.228;2024-03-22T04:14:24;100.45;;;28.45;;
52067;SDS011;60237;52.338;21.228;2024-03-22T04:16:50;70.53;;;27.15;;
52067;SDS011;60237;52.338;21.228;2024-03-22T04:19:16;87.65;;;28.73;;
52067;SDS011;60237;52.338;21.228;2024-03-22T04:21:42;93.70;;;28.67;;
52067;SDS011;60237;52.338;21.228;2024-03-22T04:24:08;84.78;;;28.10;;
52067;SDS011;60237;52.338;21.228;2024-03-22T04:26:33;104.40;;;30.33;;
52067;SDS011;60237;52.338;21.228;2024-03-22T04:28:59;112.57;;;31.85;;
52067;SDS011;60237;52.338;21.228;2024-03-22T04:31:24;105.43;;;30.90;;
52067;SDS011;60237;52.338;21.228;2024-03-22T04:33:50;99.80;;;31.55;;
52067;SDS011;60237;52.338;21.228;2024-03-22T04:36:16;106.55;;;31.30;;
52067;SDS011;60237;52.338;21.228;2024-03-22T04:38:41;85.43;;;29.52;;
52067;SDS011;60237;52.338;21.228;2024-03-22T04:41:07;113.05;;;32.35;;
52067;SDS011;60237;52.338;21.228;2024-03-22T04:43:32;103.95;;;29.92;;
52067;SDS011;60237;52.338;21.228;2024-03-22T04:45:58;92.80;;;30.35;;
52067;SDS011;60237;52.338;21.228;2024-03-22T04:48:25;107.88;;;32.30;;
52067;SDS011;60237;52.338;21.228;2024-03-22T04:50:51;84.20;;;29.25;;
52067;SDS011;60237;52.338;21.228;2024-03-22T04:53:17;123.22;;;31.23;;
52067;SDS011;60237;52.338;21.228;2024-03-22T04:55:43;91.50;;;29.92;;
52067;SDS011;60237;52.338;21.228;2024-03-22T04:58:13;99.80;;;32.22;;
52067;SDS011;60237;52.338;21.228;2024-03-22T05:00:39;98.72;;;30.17;;
52067;SDS011;60237;52.338;21.228;2024-03-22T05:03:05;102.78;;;30.02;;
52067;SDS011;60237;52.338;21.228;2024-03-22T05:05:31;75.03;;;29.02;;
52067;SDS011;60237;52.338;21.228;2024-03-22T05:07:56;97.30;;;29.75;;
52067;SDS011;60237;52.338;21.228;2024-03-22T05:10:22;94.70;;;29.45;;
52067;SDS011;60237;52.338;21.228;2024-03-22T05:12:47;77.30;;;28.95;;
52067;SDS011;60237;52.338;21.228;2024-03-22T05:15:13;96.53;;;29.35;;
52067;SDS011;60237;52.338;21.228;2024-03-22T05:17:39;78.68;;;27.40;;
52067;SDS011;60237;52.338;21.228;2024-03-22T05:20:06;80.30;;;28.38;;
52067;SDS011;60237;52.338;21.228;2024-03-22T05:22:39;88.68;;;28.63;;
52067;SDS011;60237;52.338;21.228;2024-03-22T05:25:04;98.82;;;30.30;;
52067;SDS011;60237;52.338;21.228;2024-03-22T05:27:30;92.95;;;29.73;;
52067;SDS011;60237;52.338;21.228;2024-03-22T05:29:56;83.43;;;29.15;;
52067;SDS011;60237;52.338;21.228;2024-03-22T05:32:22;90.22;;;29.17;;
52067;SDS011;60237;52.338;21.228;2024-03-22T05:34:47;109.50;;;31.75;;
52067;SDS011;60237;52.338;21.228;2024-03-22T05:37:13;86.25;;;30.23;;
52067;SDS011;60237;52.338;21.228;2024-03-22T05:39:39;80.50;;;29.20;;
52067;SDS011;60237;52.338;21.228;2024-03-22T05:42:05;83.90;;;28.30;;
52067;SDS011;60237;52.338;21.228;2024-03-22T05:44:32;88.95;;;28.73;;
52067;SDS011;60237;52.338;21.228;2024-03-22T05:47:00;89.70;;;28.15;;
52067;SDS011;60237;52.338;21.228;2024-03-22T05:49:25;76.82;;;27.98;;
52067;SDS011;60237;52.338;21.228;2024-03-22T05:51:51;60.45;;;27.00;;
52067;SDS011;60237;52.338;21.228;2024-03-22T05:54:17;87.35;;;27.58;;
52067;SDS011;60237;52.338;21.228;2024-03-22T05:56:42;82.15;;;29.10;;
52067;SDS011;60237;52.338;21.228;2024-03-22T05:59:08;86.40;;;26.52;;
52067;SDS011;60237;52.338;21.228;2024-03-22T06:01:33;89.95;;;29.42;;
52067;SDS011;60237;52.338;21.228;2024-03-22T06:03:59;78.50;;;27.83;;
52067;SDS011;60237;52.338;21.228;2024-03-22T06:06:25;67.10;;;26.70;;
52067;SDS011;60237;52.338;21.228;2024-03-22T06:08:51;74.75;;;25.85;;
52067;SDS011;60237;52.338;21.228;2024-03-22T06:11:22;68.47;;;25.40;;
52067;SDS011;60237;52.338;21.228;2024-03-22T06:13:48;80.20;;;28.00;;
52067;SDS011;60237;52.338;21.228;2024-03-22T06:16:14;87.18;;;26.50;;
52067;SDS011;60237;52.338;21.228;2024-03-22T06:18:39;57.47;;;22.65;;
52067;SDS011;60237;52.338;21.228;2024-03-22T06:21:05;110.63;;;25.75;;
52067;SDS011;60237;52.338;21.228;2024-03-22T06:23:31;103.97;;;26.52;;
52067;SDS011;60237;52.338;21.228;2024-03-22T06:25:57;97.60;;;25.45;;
52067;SDS011;60237;52.338;21.228;2024-03-22T06:28:23;68.03;;;24.58;;
52067;SDS011;60237;52.338;21.228;2024-03-22T06:30:49;91.40;;;23.35;;
52067;SDS011;60237;52.338;21.228;2024-03-22T06:33:14;135.98;;;27.23;;
52067;SDS011;60237;52.338;21.228;2024-03-22T06:35:43;62.83;;;20.75;;
52067;SDS011;60237;52.338;21.228;2024-03-22T06:38:09;67.88;;;21.58;;
52067;SDS011;60237;52.338;21.228;2024-03-22T06:40:34;81.57;;;23.50;;
52067;SDS011;60237;52.338;21.228;2024-03-22T06:43:00;108.07;;;24.30;;
52067;SDS011;60237;52.338;21.228;2024-03-22T06:45:25;54.10;;;21.05;;
52067;SDS011;60237;52.338;21.228;2024-03-22T06:47:51;100.50;;;23.52;;
52067;SDS011;60237;52.338;21.228;2024-03-22T06:50:17;82.32;;;23.48;;
52067;SDS011;60237;52.338;21.228;2024-03-22T06:52:55;132.65;;;25.88;;
52067;SDS011;60237;52.338;21.228;2024-03-22T06:55:21;75.03;;;23.48;;
52067;SDS011;60237;52.338;21.228;2024-03-22T06:57:50;79.25;;;23.73;;
52067;SDS011;60237;52.338;21.228;2024-03-22T07:00:15;94.65;;;24.23;;
52067;SDS011;60237;52.338;21.228;2024-03-22T07:02:41;81.13;;;24.20;;
52067;SDS011;60237;52.338;21.228;2024-03-22T07:05:07;89.50;;;24.13;;
52067;SDS011;60237;52.338;21.228;2024-03-22T07:07:33;87.85;;;23.50;;
52067;SDS011;60237;52.338;21.228;2024-03-22T07:09:59;73.15;;;22.15;;
52067;SDS011;60237;52.338;21.228;2024-03-22T07:12:25;82.72;;;22.63;;
52067;SDS011;60237;52.338;21.228;2024-03-22T07:14:50;77.47;;;23.08;;
52067;SDS011;60237;52.338;21.228;2024-03-22T07:17:16;81.13;;;22.40;;
52067;SDS011;60237;52.338;21.228;2024-03-22T07:19:41;84.40;;;21.88;;
52067;SDS011;60237;52.338;21.228;2024-03-22T07:22:08;66.53;;;21.38;;
52067;SDS011;60237;52.338;21.228;2024-03-22T07:24:33;78.47;;;22.63;;
52067;SDS011;60237;52.338;21.228;2024-03-22T07:26:59;76.25;;;23.27;;
52067;SDS011;60237;52.338;21.228;2024-03-22T07:29:25;60.95;;;20.45;;
52067;SDS011;60237;52.338;21.228;2024-03-22T07:31:50;92.18;;;22.27;;
52067;SDS011;60237;52.338;21.228;2024-03-22T07:34:16;94.93;;;23.27;;
52067;SDS011;60237;52.338;21.228;2024-03-22T07:36:41;93.90;;;22.65;;
52067;SDS011;60237;52.338;21.228;2024-03-22T07:39:07;89.97;;;21.80;;
52067;SDS011;60237;52.338;21.228;2024-03-22T07:41:33;62.30;;;20.65;;
52067;SDS011;60237;52.338;21.228;2024-03-22T07:43:59;83.05;;;21.70;;
52067;SDS011;60237;52.338;21.228;2024-03-22T07:46:25;47.63;;;17.75;;
52067;SDS011;60237;52.338;21.228;2024-03-22T07:48:51;94.75;;;21.27;;
52067;SDS011;60237;52.338;21.228;2024-03-22T07:51:17;63.97;;;20.55;;
52067;SDS011;60237;52.338;21.228;2024-03-22T07:53:43;80.55;;;21.85;;
52067;SDS011;60237;52.338;21.228;2024-03-22T07:56:08;61.05;;;19.33;;
52067;SDS011;60237;52.338;21.228;2024-03-22T07:58:34;49.53;;;17.58;;
52067;SDS011;60237;52.338;21.228;2024-03-22T08:01:00;77.13;;;22.08;;
52067;SDS011;60237;52.338;21.228;2024-03-22T08:03:25;72.20;;;19.77;;
52067;SDS011;60237;52.338;21.228;2024-03-22T08:05:51;63.97;;;19.77;;
52067;SDS011;60237;52.338;21.228;2024-03-22T08:08:16;62.05;;;19.45;;
52067;SDS011;60237;52.338;21.228;2024-03-22T08:10:43;58.17;;;20.92;;
52067;SDS011;60237;52.338;21.228;2024-03-22T08:13:08;93.30;;;21.92;;
52067;SDS011;60237;52.338;21.228;2024-03-22T08:15:35;49.38;;;18.10;;
52067;SDS011;60237;52.338;21.228;2024-03-22T08:18:01;88.45;;;20.42;;
52067;SDS011;60237;52.338;21.228;2024-03-22T08:20:26;63.42;;;19.95;;
52067;SDS011;60237;52.338;21.228;2024-03-22T08:22:52;59.20;;;19.70;;
52067;SDS011;60237;52.338;21.228;2024-03-22T08:25:18;59.97;;;20.50;;
52067;SDS011;60237;52.338;21.228;2024-03-22T08:27:46;57.65;;;19.70;;
52067;SDS011;60237;52.338;21.228;2024-03-22T08:30:11;52.47;;;20.98;;
52067;SDS011;60237;52.338;21.228;2024-03-22T08:32:37;94.43;;;21.02;;
52067;SDS011;60237;52.338;21.228;2024-03-22T08:35:03;83.97;;;20.42;;
52067;SDS011;60237;52.338;21.228;2024-03-22T08:37:29;51.38;;;18.75;;
52067;SDS011;60237;52.338;21.228;2024-03-22T08:39:55;67.13;;;18.67;;
52067;SDS011;60237;52.338;21.228;2024-03-22T08:42:21;67.63;;;18.27;;
52067;SDS011;60237;52.338;21.228;2024-03-22T08:44:46;58.08;;;17.65;;
52067;SDS011;60237;52.338;21.228;2024-03-22T08:47:12;79.47;;;19.70;;
52067;SDS011;60237;52.338;21.228;2024-03-22T08:49:38;61.97;;;18.67;;
52067;SDS011;60237;52.338;21.228;2024-03-22T08:52:04;47.20;;;17.67;;
52067;SDS011;60237;52.338;21.228;2024-03-22T08:54:30;42.42;;;16.42;;
52067;SDS011;60237;52.338;21.228;2024-03-22T08:56:55;71.82;;;17.92;;
52067;SDS011;60237;52.338;21.228;2024-03-22T08:59:21;59.95;;;16.92;;
52067;SDS011;60237;52.338;21.228;2024-03-22T09:01:48;66.97;;;18.17;;
52067;SDS011;60237;52.338;21.228;2024-03-22T09:04:14;49.38;;;16.45;;
52067;SDS011;60237;52.338;21.228;2024-03-22T09:06:40;66.53;;;18.92;;
52067;SDS011;60237;52.338;21.228;2024-03-22T09:09:06;74.68;;;18.80;;
52067;SDS011;60237;52.338;21.228;2024-03-22T09:11:33;63.35;;;17.77;;
52067;SDS011;60237;52.338;21.228;2024-03-22T09:13:58;79.68;;;18.35;;
52067;SDS011;60237;52.338;21.228;2024-03-22T09:16:24;52.47;;;16.20;;
52067;SDS011;60237;52.338;21.228;2024-03-22T09:18:50;56.50;;;17.40;;
52067;SDS011;60237;52.338;21.228;2024-03-22T09:21:16;80.63;;;19.90;;
52067;SDS011;60237;52.338;21.228;2024-03-22T09:23:41;66.55;;;20.70;;
52067;SDS011;60237;52.338;21.228;2024-03-22T09:26:07;69.05;;;18.45;;
52067;SDS011;60237;52.338;21.228;2024-03-22T09:28:33;94.25;;;20.75;;
52067;SDS011;60237;52.338;21.228;2024-03-22T09:31:03;73.90;;;17.38;;
52067;SDS011;60237;52.338;21.228;2024-03-22T09:33:29;121.25;;;21.70;;
52067;SDS011;60237;52.338;21.228;2024-03-22T09:35:54;71.65;;;18.27;;
52067;SDS011;60237;52.338;21.228;2024-03-22T09:38:20;65.82;;;19.17;;
52067;SDS011;60237;52.338;21.228;2024-03-22T09:40:46;70.25;;;18.30;;
52067;SDS011;60237;52.338;21.228;2024-03-22T09:43:12;71.85;;;19.58;;
52067;SDS011;60237;52.338;21.228;2024-03-22T09:45:40;79.25;;;19.15;;
52067;SDS011;60237;52.338;21.228;2024-03-22T09:48:06;66.85;;;18.75;;
52067;SDS011;60237;52.338;21.228;2024-03-22T09:50:32;56.72;;;17.42;;
52067;SDS011;60237;52.338;21.228;2024-03-22T09:52:57;91.93;;;20.73;;
52067;SDS011;60237;52.338;21.228;2024-03-22T09:55:23;54.00;;;19.42;;
52067;SDS011;60237;52.338;21.228;2024-03-22T09:57:49;57.17;;;18.15;;
52067;SDS011;60237;52.338;21.228;2024-03-22T10:00:19;67.32;;;19.63;;
52067;SDS011;60237;52.338;21.228;2024-03-22T10:02:46;58.22;;;19.17;;
52067;SDS011;60237;52.338;21.228;2024-03-22T10:05:12;66.80;;;19.27;;
52067;SDS011;60237;52.338;21.228;2024-03-22T10:07:37;57.97;;;19.20;;
52067;SDS011;60237;52.338;21.228;2024-03-22T10:10:03;72.13;;;20.40;;
52067;SDS011;60237;52.338;21.228;2024-03-22T10:12:29;56.13;;;19.92;;
52067;SDS011;60237;52.338;21.228;2024-03-22T10:14:54;82.57;;;20.17;;
52067;SDS011;60237;52.338;21.228;2024-03-22T10:17:21;55.00;;;18.40;;
52067;SDS011;60237;52.338;21.228;2024-03-22T10:19:50;55.85;;;18.80;;
52067;SDS011;60237;52.338;21.228;2024-03-22T10:22:17;88.72;;;20.13;;
52067;SDS011;60237;52.338;21.228;2024-03-22T10:24:43;39.28;;;17.95;;
52067;SDS011;60237;52.338;21.228;2024-03-22T10:27:09;81.10;;;19.20;;
52067;SDS011;60237;52.338;21.228;2024-03-22T10:29:38;68.22;;;19.45;;
52067;SDS011;60237;52.338;21.228;2024-03-22T10:32:03;48.40;;;18.00;;
52067;SDS011;60237;52.338;21.228;2024-03-22T10:34:29;50.58;;;17.27;;
52067;SDS011;60237;52.338;21.228;2024-03-22T10:36:55;85.05;;;19.58;;
52067;SDS011;60237;52.338;21.228;2024-03-22T10:39:21;48.83;;;16.60;;
52067;SDS011;60237;52.338;21.228;2024-03-22T10:41:48;41.40;;;15.40;;
52067;SDS011;60237;52.338;21.228;2024-03-22T10:44:14;54.97;;;16.80;;
52067;SDS011;60237;52.338;21.228;2024-03-22T10:46:44;57.90;;;16.95;;
52067;SDS011;60237;52.338;21.228;2024-03-22T10:49:10;57.65;;;15.60;;
52067;SDS011;60237;52.338;21.228;2024-03-22T10:51:37;86.35;;;17.63;;
52067;SDS011;60237;52.338;21.228;2024-03-22T10:54:03;67.60;;;17.13;;
52067;SDS011;60237;52.338;21.228;2024-03-22T10:56:30;47.80;;;14.50;;
52067;SDS011;60237;52.338;21.228;2024-03-22T10:58:56;57.00;;;14.57;;
52067;SDS011;60237;52.338;21.228;2024-03-22T11:01:22;46.15;;;13.95;;
52067;SDS011;60237;52.338;21.228;2024-03-22T11:03:48;61.50;;;14.05;;
52067;SDS011;60237;52.338;21.228;2024-03-22T11:06:17;51.58;;;14.18;;
52067;SDS011;60237;52.338;21.228;2024-03-22T11:08:43;45.60;;;14.00;;
52067;SDS011;60237;52.338;21.228;2024-03-22T11:11:12;66.75;;;15.25;;
52067;SDS011;60237;52.338;21.228;2024-03-22T11:13:40;72.28;;;15.68;;
52067;SDS011;60237;52.338;21.228;2024-03-22T11:16:06;57.85;;;14.23;;
52067;SDS011;60237;52.338;21.228;2024-03-22T11:18:36;50.35;;;13.35;;
52067;SDS011;60237;52.338;21.228;2024-03-22T11:21:01;92.90;;;16.17;;
52067;SDS011;60237;52.338;21.228;2024-03-22T11:23:29;56.83;;;14.90;;
52067;SDS011;60237;52.338;21.228;2024-03-22T11:25:54;61.40;;;15.32;;
52067;SDS011;60237;52.338;21.228;2024-03-22T11:28:22;80.82;;;15.75;;
52067;SDS011;60237;52.338;21.228;2024-03-22T11:30:48;47.63;;;13.55;;
52067;SDS011;60237;52.338;21.228;2024-03-22T11:33:14;82.63;;;14.50;;
52067;SDS011;60237;52.338;21.228;2024-03-22T11:35:39;55.63;;;14.35;;
52067;SDS011;60237;52.338;21.228;2024-03-22T11:38:05;58.83;;;13.55;;
52067;SDS011;60237;52.338;21.228;2024-03-22T11:40:30;86.18;;;15.50;;
52067;SDS011;60237;52.338;21.228;2024-03-22T11:42:56;79.72;;;14.48;;
52067;SDS011;60237;52.338;21.228;2024-03-22T11:45:23;90.30;;;15.80;;
52067;SDS011;60237;52.338;21.228;2024-03-22T11:47:48;37.78;;;12.80;;
52067;SDS011;60237;52.338;21.228;2024-03-22T11:50:14;53.85;;;13.73;;
52067;SDS011;60237;52.338;21.228;2024-03-22T11:52:40;42.05;;;12.63;;
52067;SDS011;60237;52.338;21.228;2024-03-22T11:55:06;67.03;;;14.50;;
52067;SDS011;60237;52.338;21.228;2024-03-22T11:57:32;36.30;;;11.98;;
52067;SDS011;60237;52.338;21.228;2024-03-22T12:00:01;44.72;;;13.80;;
52067;SDS011;60237;52.338;21.228;2024-03-22T12:02:37;48.58;;;12.65;;
52067;SDS011;60237;52.338;21.228;2024-03-22T12:05:03;91.05;;;15.93;;
52067;SDS011;60237;52.338;21.228;2024-03-22T12:07:29;83.57;;;15.88;;
52067;SDS011;60237;52.338;21.228;2024-03-22T12:09:55;50.42;;;13.70;;
52067;SDS011;60237;52.338;21.228;2024-03-22T12:12:21;43.80;;;13.98;;
52067;SDS011;60237;52.338;21.228;2024-03-22T12:14:47;52.85;;;14.02;;
52067;SDS011;60237;52.338;21.228;2024-03-22T12:17:13;59.38;;;14.05;;
52067;SDS011;60237;52.338;21.228;2024-03-22T12:19:38;55.13;;;13.80;;
52067;SDS011;60237;52.338;21.228;2024-03-22T12:22:04;49.95;;;14.13;;
52067;SDS011;60237;52.338;21.228;2024-03-22T12:24:31;71.68;;;15.57;;
52067;SDS011;60237;52.338;21.228;2024-03-22T12:26:58;57.35;;;14.27;;
52067;SDS011;60237;52.338;21.228;2024-03-22T12:29:24;58.10;;;15.40;;
52067;SDS011;60237;52.338;21.228;2024-03-22T12:31:50;46.72;;;14.93;;
52067;SDS011;60237;52.338;21.228;2024-03-22T12:34:16;50.33;;;15.50;;
52067;SDS011;60237;52.338;21.228;2024-03-22T12:36:42;54.88;;;15.65;;
52067;SDS011;60237;52.338;21.228;2024-03-22T12:39:08;91.10;;;17.90;;
52067;SDS011;60237;52.338;21.228;2024-03-22T12:41:33;51.65;;;16.17;;
52067;SDS011;60237;52.338;21.228;2024-03-22T12:43:59;49.67;;;12.73;;
52067;SDS011;60237;52.338;21.228;2024-03-22T12:46:25;75.60;;;14.98;;
52067;SDS011;60237;52.338;21.228;2024-03-22T12:48:51;36.25;;;11.80;;
52067;SDS011;60237;52.338;21.228;2024-03-22T12:51:16;51.47;;;12.07;;
52067;SDS011;60237;52.338;21.228;2024-03-22T12:53:42;91.95;;;13.90;;
52067;SDS011;60237;52.338;21.228;2024-03-22T12:56:08;46.28;;;11.73;;
52067;SDS011;60237;52.338;21.228;2024-03-22T12:58:34;51.80;;;11.85;;
52067;SDS011;60237;52.338;21.228;2024-03-22T13:01:00;101.35;;;16.33;;
52067;SDS011;60237;52.338;21.228;2024-03-22T13:03:27;63.15;;;13.70;;
52067;SDS011;60237;52.338;21.228;2024-03-22T13:05:53;55.42;;;12.25;;
52067;SDS011;60237;52.338;21.228;2024-03-22T13:08:19;61.40;;;13.60;;
52067;SDS011;60237;52.338;21.228;2024-03-22T13:10:45;61.72;;;13.95;;
52067;SDS011;60237;52.338;21.228;2024-03-22T13:13:11;70.18;;;15.18;;
52067;SDS011;60237;52.338;21.228;2024-03-22T13:15:36;50.38;;;13.55;;
52067;SDS011;60237;52.338;21.228;2024-03-22T13:18:05;71.25;;;13.45;;
52067;SDS011;60237;52.338;21.228;2024-03-22T13:20:30;54.25;;;11.98;;
52067;SDS011;60237;52.338;21.228;2024-03-22T13:22:56;89.30;;;13.45;;
52067;SDS011;60237;52.338;21.228;2024-03-22T13:25:22;74.75;;;12.95;;
52067;SDS011;60237;52.338;21.228;2024-03-22T13:27:47;64.25;;;13.65;;
52067;SDS011;60237;52.338;21.228;2024-03-22T13:30:14;58.25;;;13.27;;
52067;SDS011;60237;52.338;21.228;2024-03-22T13:32:40;78.32;;;14.32;;
52067;SDS011;60237;52.338;21.228;2024-03-22T13:35:06;104.20;;;14.50;;
52067;SDS011;60237;52.338;21.228;2024-03-22T13:37:31;55.42;;;12.77;;
52067;SDS011;60237;52.338;21.228;2024-03-22T13:39:57;45.90;;;11.82;;
52067;SDS011;60237;52.338;21.228;2024-03-22T13:42:23;52.00;;;13.02;;
52067;SDS011;60237;52.338;21.228;2024-03-22T13:44:48;47.53;;;12.13;;
52067;SDS011;60237;52.338;21.228;2024-03-22T13:47:14;51.30;;;12.27;;
52067;SDS011;60237;52.338;21.228;2024-03-22T13:49:39;65.95;;;12.70;;
52067;SDS011;60237;52.338;21.228;2024-03-22T13:52:07;62.65;;;12.73;;
52067;SDS011;60237;52.338;21.228;2024-03-22T13:54:32;39.72;;;11.48;;
52067;SDS011;60237;52.338;21.228;2024-03-22T13:56:58;65.00;;;12.00;;
52067;SDS011;60237;52.338;21.228;2024-03-22T13:59:24;29.88;;;10.73;;
52067;SDS011;60237;52.338;21.228;2024-03-22T14:01:49;22.10;;;9.80;;